Time;durP1;ratioP1;P1;durP2;ratioP2;P2;SDS_P1;SDS_P2;PMS_P1;PMS_P2;Temp;Humidity;BMP_temperature;BMP_pressure;BME280_temperature;BME280_humidity;BME280_pressure;Samples;Min_cycle;Max_cycle;Signal;HPM_P1;HPM_P2
2022/10/23 00:02:20;;;;;;;16.27;8.10;;;;;;;10.72;100.00;101292.22;5009872;28;20537;-75
2022/10/23 00:04:48;;;;;;;13.70;8.68;;;;;;;10.75;100.00;101291.13;5009004;28;20072;-75
2022/10/23 00:07:14;;;;;;;14.07;8.18;;;;;;;10.79;100.00;101287.25;5008115;28;20045;-76
2022/10/23 00:09:39;;;;;;;15.75;7.38;;;;;;;10.82;100.00;101278.88;5020661;28;20021;-76
2022/10/23 00:12:05;;;;;;;17.60;7.38;;;;;;;10.81;100.00;101274.38;5011727;28;20048;-75
2022/10/23 00:14:30;;;;;;;17.48;8.73;;;;;;;10.80;100.00;101272.66;5027583;28;20389;-76
2022/10/23 00:16:56;;;;;;;17.65;8.15;;;;;;;10.80;100.00;101269.06;5029247;28;20025;-76
2022/10/23 00:19:21;;;;;;;17.58;8.63;;;;;;;10.84;100.00;101271.47;5017782;28;20110;-76
2022/10/23 00:21:46;;;;;;;15.48;7.97;;;;;;;10.83;100.00;101277.91;5009121;28;20045;-75
2022/10/23 00:24:12;;;;;;;13.35;8.40;;;;;;;10.84;100.00;101279.63;5017774;28;20100;-74
2022/10/23 00:26:39;;;;;;;18.85;8.45;;;;;;;10.84;100.00;101284.22;5017681;28;20044;-74
2022/10/23 00:29:05;;;;;;;18.27;9.13;;;;;;;10.85;100.00;101280.50;5028500;28;20400;-76
2022/10/23 00:31:31;;;;;;;14.18;8.02;;;;;;;10.88;100.00;101278.47;5028835;28;20433;-75
2022/10/23 00:33:58;;;;;;;14.82;7.68;;;;;;;10.90;100.00;101283.78;5022367;28;20125;-75
2022/10/23 00:36:24;;;;;;;18.85;8.50;;;;;;;10.90;100.00;101279.22;5008984;28;20116;-75
2022/10/23 00:38:50;;;;;;;17.10;8.63;;;;;;;10.89;100.00;101279.34;5007685;28;20462;-75
2022/10/23 00:41:26;;;;;;;15.35;8.88;;;;;;;10.91;100.00;101271.94;5008966;28;20098;-75
2022/10/23 00:44:00;;;;;;;13.82;8.15;;;;;;;10.92;100.00;101270.97;5008691;28;20552;-76
2022/10/23 00:46:26;;;;;;;17.40;8.52;;;;;;;10.91;100.00;101261.94;5008868;28;20044;-74
2022/10/23 00:48:51;;;;;;;15.30;7.95;;;;;;;10.94;100.00;101263.56;5008473;28;20042;-75
2022/10/23 00:51:17;;;;;;;17.55;8.43;;;;;;;10.96;100.00;101264.34;5008766;28;20042;-75
2022/10/23 00:53:43;;;;;;;15.40;8.48;;;;;;;10.98;100.00;101259.66;5007140;28;20061;-74
2022/10/23 00:56:09;;;;;;;12.88;8.48;;;;;;;11.00;100.00;101271.31;5008821;28;20041;-75
2022/10/23 00:58:34;;;;;;;20.58;9.13;;;;;;;11.01;100.00;101275.81;5009577;28;20061;-74
2022/10/23 01:00:59;;;;;;;12.13;7.72;;;;;;;11.01;100.00;101273.09;5007526;28;20021;-75
2022/10/23 01:03:27;;;;;;;14.55;7.80;;;;;;;11.03;100.00;101279.28;5008568;28;20501;-74
2022/10/23 01:06:07;;;;;;;12.95;8.38;;;;;;;11.04;100.00;101267.41;5008953;28;20034;-75
2022/10/23 01:09:01;;;;;;;18.52;7.60;;;;;;;11.06;100.00;101264.59;5008730;28;20037;-75
2022/10/23 01:11:45;;;;;;;18.65;7.13;;;;;;;11.08;100.00;101262.63;5001799;28;20053;-75
2022/10/23 01:14:41;;;;;;;20.73;8.25;;;;;;;11.09;100.00;101267.97;4991320;28;20121;-75
2022/10/23 01:17:17;;;;;;;13.10;7.40;;;;;;;11.09;100.00;101259.78;5007849;28;20410;-76
2022/10/23 01:20:04;;;;;;;14.52;7.20;;;;;;;11.10;100.00;101260.69;5017037;28;20029;-75
2022/10/23 01:22:38;;;;;;;11.00;6.85;;;;;;;11.09;100.00;101251.63;5024405;28;20087;-76
2022/10/23 01:25:22;;;;;;;15.15;7.18;;;;;;;11.10;100.00;101255.25;5012380;28;20056;-75
2022/10/23 01:27:54;;;;;;;16.45;8.00;;;;;;;11.05;100.00;101258.28;4994473;28;20030;-75
2022/10/23 01:30:20;;;;;;;11.65;7.22;;;;;;;11.04;100.00;101253.78;4994511;28;20026;-75
2022/10/23 01:32:53;;;;;;;18.25;7.68;;;;;;;11.00;100.00;101254.97;4994973;28;20056;-75
2022/10/23 01:35:25;;;;;;;10.88;7.10;;;;;;;10.95;100.00;101248.97;5010591;28;20065;-75
2022/10/23 01:38:32;;;;;;;17.02;7.20;;;;;;;10.89;100.00;101247.53;5010958;28;20064;-75
2022/10/23 01:41:04;;;;;;;14.38;6.65;;;;;;;10.85;100.00;101243.28;4995040;28;20048;-75
2022/10/23 01:43:54;;;;;;;11.93;7.30;;;;;;;10.81;100.00;101238.13;5011752;28;20041;-75
2022/10/23 01:46:23;;;;;;;15.77;6.43;;;;;;;10.72;100.00;101232.38;5016291;28;20136;-75
2022/10/23 01:48:52;;;;;;;15.60;6.80;;;;;;;10.69;100.00;101221.66;5010529;28;20040;-76
2022/10/23 01:51:20;;;;;;;13.70;7.35;;;;;;;10.67;100.00;101220.00;4994604;28;20125;-74
2022/10/23 01:53:51;;;;;;;13.40;6.28;;;;;;;10.65;100.00;101221.97;5015059;28;20036;-75
2022/10/23 01:56:24;;;;;;;12.82;7.35;;;;;;;10.63;100.00;101216.66;5016255;28;20088;-75
2022/10/23 01:58:52;;;;;;;15.07;6.90;;;;;;;10.58;100.00;101207.03;5010302;28;20438;-76
2022/10/23 02:01:21;;;;;;;15.13;7.25;;;;;;;10.61;100.00;101213.13;5010643;28;20613;-75
2022/10/23 02:03:51;;;;;;;12.48;6.20;;;;;;;10.61;100.00;101217.72;5010275;28;20149;-75
2022/10/23 02:06:16;;;;;;;11.55;6.78;;;;;;;10.58;100.00;101216.06;5010393;28;20084;-75
2022/10/23 02:08:42;;;;;;;16.70;7.05;;;;;;;10.57;100.00;101221.59;5010927;28;20125;-76
2022/10/23 02:11:10;;;;;;;13.35;7.80;;;;;;;10.54;100.00;101217.25;5018345;28;20625;-75
2022/10/23 02:13:44;;;;;;;19.80;8.63;;;;;;;10.50;100.00;101214.84;5026373;28;20484;-76
2022/10/23 02:16:17;;;;;;;11.88;6.90;;;;;;;10.48;100.00;101218.50;5030005;28;20034;-74
2022/10/23 02:19:15;;;;;;;15.10;7.18;;;;;;;10.46;100.00;101215.03;5027408;28;20126;-75
2022/10/23 02:21:52;;;;;;;9.65;6.30;;;;;;;10.43;100.00;101209.78;5030338;28;20039;-76
2022/10/23 02:24:33;;;;;;;10.70;7.43;;;;;;;10.42;100.00;101209.91;5020821;28;20041;-76
2022/10/23 02:27:10;;;;;;;12.90;7.05;;;;;;;10.37;100.00;101202.03;5010029;28;20059;-75
2022/10/23 02:29:42;;;;;;;13.57;6.90;;;;;;;10.37;100.00;101199.31;5009928;28;20442;-75
2022/10/23 02:32:09;;;;;;;9.80;6.68;;;;;;;10.43;100.00;101206.19;5010487;28;20034;-75
2022/10/23 02:34:35;;;;;;;16.63;7.05;;;;;;;10.46;100.00;101200.56;5010424;28;20342;-75
2022/10/23 02:37:01;;;;;;;10.68;6.80;;;;;;;10.43;100.00;101184.44;5009807;28;20287;-74
2022/10/23 02:39:28;;;;;;;16.13;7.32;;;;;;;10.50;100.00;101182.19;5010000;28;20036;-76
2022/10/23 02:42:08;;;;;;;14.20;7.30;;;;;;;10.56;100.00;101181.78;5010373;28;20104;-75
2022/10/23 02:44:46;;;;;;;12.65;7.45;;;;;;;10.57;100.00;101173.50;5010188;28;20030;-75
2022/10/23 02:47:39;;;;;;;13.52;7.25;;;;;;;10.63;100.00;101164.06;5010315;28;20499;-75
2022/10/23 02:50:32;;;;;;;10.75;7.10;;;;;;;10.66;100.00;101156.56;5026597;28;20584;-75
2022/10/23 02:53:13;;;;;;;11.35;7.13;;;;;;;10.66;100.00;101147.53;5029658;28;20041;-75
2022/10/23 02:55:48;;;;;;;15.02;7.47;;;;;;;10.68;100.00;101141.03;5009865;28;20500;-74
2022/10/23 02:58:20;;;;;;;14.88;7.38;;;;;;;10.69;100.00;101137.31;5018654;28;20037;-75
2022/10/23 03:00:54;;;;;;;16.52;8.13;;;;;;;10.72;100.00;101131.69;5009751;28;20034;-76
2022/10/23 03:03:27;;;;;;;17.60;7.13;;;;;;;10.75;100.00;101135.16;5026561;28;20089;-76
2022/10/23 03:05:52;;;;;;;;;;;;;;;10.78;100.00;101124.94;5010842;28;20121;-78
2022/10/23 03:08:18;;;;;;;11.40;7.15;;;;;;;10.78;100.00;101122.22;5009664;28;19959;-76
2022/10/23 03:10:43;;;;;;;13.35;7.40;;;;;;;10.79;100.00;101118.50;5009867;28;20034;-76
2022/10/23 03:13:10;;;;;;;23.13;7.40;;;;;;;10.83;100.00;101116.44;5021099;28;20116;-77
2022/10/23 03:15:42;;;;;;;12.18;6.95;;;;;;;10.80;100.00;101119.38;5029651;28;20515;-76
2022/10/23 03:18:11;;;;;;;10.90;6.63;;;;;;;10.79;100.00;101117.63;5030037;28;20034;-76
2022/10/23 03:20:37;;;;;;;11.18;6.50;;;;;;;10.77;100.00;101112.31;5012505;28;20022;-76
2022/10/23 03:23:03;;;;;;;9.27;6.82;;;;;;;10.76;100.00;101106.94;5009886;28;20121;-76
2022/10/23 03:25:28;;;;;;;17.13;7.05;;;;;;;10.74;100.00;101107.06;5021351;28;20125;-76
2022/10/23 03:27:56;;;;;;;14.43;6.90;;;;;;;10.75;100.00;101108.81;5009143;28;20481;-77
2022/10/23 03:30:21;;;;;;;14.57;6.75;;;;;;;10.76;100.00;101090.63;5009268;28;20062;-76
2022/10/23 03:32:51;;;;;;;10.77;6.78;;;;;;;10.76;100.00;101101.50;5010022;28;20025;-76
2022/10/23 03:35:17;;;;;;;9.57;6.57;;;;;;;10.73;100.00;101100.75;5014742;28;20056;-75
2022/10/23 03:37:42;;;;;;;13.18;6.88;;;;;;;10.70;100.00;101094.66;5012211;28;20505;-74
2022/10/23 03:40:09;;;;;;;15.60;6.55;;;;;;;10.70;100.00;101091.94;5011032;28;20018;-75
2022/10/23 03:42:34;;;;;;;10.30;6.28;;;;;;;10.68;100.00;101083.88;5009997;28;20080;-76
2022/10/23 03:45:00;;;;;;;9.75;6.82;;;;;;;10.68;100.00;101083.88;5008131;28;20084;-76
2022/10/23 03:47:25;;;;;;;13.18;7.05;;;;;;;10.68;100.00;101081.16;5008200;28;20030;-76
2022/10/23 03:49:50;;;;;;;12.35;7.00;;;;;;;10.68;100.00;101083.88;5008212;28;20087;-74
2022/10/23 03:52:16;;;;;;;11.98;7.68;;;;;;;10.70;100.00;101079.19;5009825;28;20460;-75
2022/10/23 03:54:41;;;;;;;12.73;7.22;;;;;;;10.69;100.00;101074.72;5009893;28;20038;-75
2022/10/23 03:57:07;;;;;;;13.23;7.75;;;;;;;10.72;100.00;101069.09;5024907;28;20659;-75
2022/10/23 03:59:34;;;;;;;17.33;7.47;;;;;;;10.76;100.00;101066.13;4992150;28;20032;-75
2022/10/23 04:01:59;;;;;;;11.05;7.25;;;;;;;10.76;100.00;101067.00;5007817;28;20489;-75
2022/10/23 04:04:25;;;;;;;15.32;8.63;;;;;;;10.80;100.00;101064.94;5014423;28;20420;-76
2022/10/23 04:06:52;;;;;;;14.23;8.27;;;;;;;10.81;100.00;101064.81;5027898;28;20028;-76
2022/10/23 04:09:18;;;;;;;14.57;7.50;;;;;;;10.82;100.00;101055.72;5018888;28;20072;-76
2022/10/23 04:11:43;;;;;;;20.70;8.68;;;;;;;10.84;100.00;101048.28;5007825;28;20497;-75
2022/10/23 04:14:11;;;;;;;14.60;7.25;;;;;;;10.85;100.00;101046.44;5024154;28;20045;-75
2022/10/23 04:16:36;;;;;;;11.57;7.03;;;;;;;10.84;100.00;101036.53;5014786;28;20037;-75
2022/10/23 04:19:05;;;;;;;19.33;7.85;;;;;;;10.83;100.00;101035.66;5011943;28;20118;-75
2022/10/23 04:21:30;;;;;;;15.88;7.60;;;;;;;10.83;100.00;101034.81;5029111;28;20069;-75
2022/10/23 04:23:56;;;;;;;14.35;7.47;;;;;;;10.80;100.00;101033.16;5005199;28;20102;-75
2022/10/23 04:26:21;;;;;;;12.15;7.20;;;;;;;10.80;100.00;101038.59;5007744;28;20040;-75
2022/10/23 04:28:46;;;;;;;13.77;7.70;;;;;;;10.81;100.00;101047.63;5007738;28;20030;-75
2022/10/23 04:31:12;;;;;;;15.38;7.65;;;;;;;10.77;100.00;101040.66;5009795;28;20037;-75
2022/10/23 04:33:40;;;;;;;14.40;7.72;;;;;;;10.77;100.00;101040.66;5007660;28;20049;-75
2022/10/23 04:36:05;;;;;;;13.93;7.55;;;;;;;10.78;100.00;101045.16;5008013;28;20057;-76
2022/10/23 04:38:31;;;;;;;15.88;6.95;;;;;;;10.77;100.00;101041.56;5007640;28;20033;-76
2022/10/23 04:40:57;;;;;;;14.25;7.60;;;;;;;10.78;100.00;101034.25;5007361;28;20026;-76
2022/10/23 04:43:22;;;;;;;17.92;8.07;;;;;;;10.77;100.00;101035.22;5007425;28;20034;-75
2022/10/23 04:45:48;;;;;;;12.45;7.82;;;;;;;10.74;100.00;101028.16;4991582;28;20090;-75
2022/10/23 04:48:14;;;;;;;12.38;6.40;;;;;;;10.72;100.00;101033.72;5007685;28;20030;-75
2022/10/23 04:51:04;;;;;;;15.48;7.22;;;;;;;10.70;100.00;101032.06;5009102;28;20531;-75
2022/10/23 04:54:02;;;;;;;12.63;6.95;;;;;;;10.70;100.00;101032.06;4996701;28;20120;-75
2022/10/23 04:56:40;;;;;;;11.13;6.60;;;;;;;10.69;100.00;101023.03;5009040;28;20401;-75
2022/10/23 04:59:09;;;;;;;11.00;6.43;;;;;;;10.67;100.00;101019.53;5008997;28;20461;-75
2022/10/23 05:01:36;;;;;;;21.30;6.78;;;;;;;10.68;100.00;101020.44;5007640;28;20033;-75
2022/10/23 05:04:04;;;;;;;12.73;6.28;;;;;;;10.64;100.00;101018.91;5007390;28;20120;-74
2022/10/23 05:06:34;;;;;;;10.18;6.40;;;;;;;10.64;100.00;101018.91;5007731;28;20396;-76
2022/10/23 05:09:18;;;;;;;14.82;6.30;;;;;;;10.62;100.00;101012.66;5009223;28;20100;-75
2022/10/23 05:11:54;;;;;;;14.90;6.95;;;;;;;10.64;100.00;101016.19;5008888;28;20140;-75
2022/10/23 05:14:20;;;;;;;10.32;6.05;;;;;;;10.68;100.00;101017.72;5008548;28;20049;-76
2022/10/23 05:16:49;;;;;;;12.48;6.32;;;;;;;10.69;100.00;101014.88;5007420;28;20034;-75
2022/10/23 05:19:20;;;;;;;11.00;7.13;;;;;;;10.72;100.00;101011.94;5008710;28;20460;-75
2022/10/23 05:21:50;;;;;;;13.13;6.88;;;;;;;10.75;100.00;101010.84;5008766;28;20446;-76
2022/10/23 05:24:17;;;;;;;12.30;6.18;;;;;;;10.79;100.00;101004.19;5010265;28;20489;-75
2022/10/23 05:26:52;;;;;;;17.27;6.95;;;;;;;10.83;100.00;101008.44;5020183;28;20040;-75
2022/10/23 05:29:19;;;;;;;16.23;6.35;;;;;;;10.84;100.00;101002.03;5007165;28;20402;-76
2022/10/23 05:31:46;;;;;;;12.88;5.55;;;;;;;10.83;100.00;101005.72;5007278;28;20030;-75
2022/10/23 05:34:15;;;;;;;10.32;6.15;;;;;;;10.89;100.00;100999.84;5006563;28;20041;-75
2022/10/23 05:36:44;;;;;;;12.05;6.68;;;;;;;10.91;100.00;101002.44;4991089;28;20057;-75
2022/10/23 05:39:10;;;;;;;12.82;6.40;;;;;;;10.99;100.00;101000.91;5007634;28;20042;-76
2022/10/23 05:41:36;;;;;;;19.65;7.13;;;;;;;11.04;100.00;101003.31;5006980;28;20091;-76
2022/10/23 05:44:01;;;;;;;10.15;6.13;;;;;;;11.07;100.00;100994.06;5006698;28;20038;-76
2022/10/23 05:46:45;;;;;;;14.48;7.13;;;;;;;11.06;100.00;101000.50;5008809;28;20132;-75
2022/10/23 05:49:17;;;;;;;13.70;6.35;;;;;;;11.06;100.00;100995.91;5006653;28;20137;-75
2022/10/23 05:52:15;;;;;;;10.35;5.85;;;;;;;11.08;100.00;100991.22;4982046;28;20500;-75
2022/10/23 05:54:51;;;;;;;13.07;6.43;;;;;;;11.09;100.00;100992.97;5013347;28;20057;-75
2022/10/23 05:57:34;;;;;;;11.27;6.10;;;;;;;11.08;100.00;100980.34;5021347;28;20489;-75
2022/10/23 06:00:04;;;;;;;12.55;6.40;;;;;;;11.07;100.00;100988.63;5006652;28;20413;-75
2022/10/23 06:02:38;;;;;;;10.55;5.82;;;;;;;11.04;100.00;100980.66;5017544;28;20374;-76
2022/10/23 06:05:12;;;;;;;9.25;5.70;;;;;;;11.02;100.00;100979.91;5016364;28;20103;-73
2022/10/23 06:07:40;;;;;;;20.85;5.80;;;;;;;11.03;100.00;100979.78;5020026;28;20042;-75
2022/10/23 06:10:06;;;;;;;17.42;6.15;;;;;;;11.06;100.00;100971.41;5015969;28;20401;-75
2022/10/23 06:12:36;;;;;;;16.67;6.93;;;;;;;11.06;100.00;100965.09;5018467;28;20034;-74
2022/10/23 06:15:02;;;;;;;15.77;6.03;;;;;;;11.10;100.00;100966.63;5013967;28;20052;-75
2022/10/23 06:17:47;;;;;;;10.50;5.78;;;;;;;11.12;100.00;100959.22;5019585;28;20042;-75
2022/10/23 06:20:12;;;;;;;12.85;5.97;;;;;;;11.12;100.00;100957.34;5015751;28;20420;-74
2022/10/23 06:22:39;;;;;;;12.57;5.30;;;;;;;11.15;100.00;100967.16;5014801;28;20036;-75
2022/10/23 06:25:20;;;;;;;10.95;6.50;;;;;;;11.19;100.00;100965.94;5023583;28;20767;-74
2022/10/23 06:27:46;;;;;;;12.30;6.10;;;;;;;11.19;100.00;100963.19;5010053;28;20049;-75
2022/10/23 06:30:12;;;;;;;12.88;6.13;;;;;;;11.22;100.00;100961.13;5010291;28;20034;-75
2022/10/23 06:32:38;;;;;;;15.43;6.35;;;;;;;11.26;100.00;100952.75;4993973;28;20107;-74
2022/10/23 06:35:10;;;;;;;10.88;6.22;;;;;;;11.28;100.00;100957.09;5009919;28;20050;-75
2022/10/23 06:37:36;;;;;;;10.43;5.57;;;;;;;11.28;100.00;100948.91;5009866;28;20034;-75
2022/10/23 06:40:09;;;;;;;10.93;5.47;;;;;;;11.32;100.00;100952.28;5019042;28;20029;-75
2022/10/23 06:42:56;;;;;;;14.02;5.10;;;;;;;11.36;100.00;100938.31;5014188;28;20117;-75
2022/10/23 06:45:35;;;;;;;13.27;5.93;;;;;;;11.39;100.00;100943.56;5026009;28;20132;-74
2022/10/23 06:48:32;;;;;;;13.48;5.90;;;;;;;11.44;100.00;100924.16;5014546;28;20527;-75
2022/10/23 06:51:07;;;;;;;15.13;5.68;;;;;;;11.48;100.00;100931.97;5013125;28;20449;-75
2022/10/23 06:53:39;;;;;;;13.75;5.53;;;;;;;11.53;100.00;100922.59;5027205;28;20037;-74
2022/10/23 06:56:27;;;;;;;9.05;6.15;;;;;;;11.57;100.00;100929.56;5011280;28;20398;-75
2022/10/23 06:58:53;;;;;;;12.18;5.57;;;;;;;11.61;100.00;100920.13;5009982;28;20160;-75
2022/10/23 07:01:19;;;;;;;12.63;5.68;;;;;;;11.64;100.00;100922.63;5026079;28;20474;-75
2022/10/23 07:03:44;;;;;;;16.63;6.57;;;;;;;11.67;100.00;100922.41;5025935;28;20041;-74
2022/10/23 07:06:10;;;;;;;13.55;6.43;;;;;;;11.71;100.00;100932.97;5025313;28;20068;-75
2022/10/23 07:08:37;;;;;;;11.80;6.22;;;;;;;11.76;100.00;100924.44;5021276;28;20034;-75
2022/10/23 07:11:13;;;;;;;20.40;6.45;;;;;;;11.81;100.00;100926.81;5008753;28;20501;-74
2022/10/23 07:13:39;;;;;;;11.57;5.70;;;;;;;11.85;100.00;100929.22;5009322;28;20103;-75
2022/10/23 07:16:21;;;;;;;12.30;5.70;;;;;;;11.86;100.00;100928.22;5009308;28;20132;-75
2022/10/23 07:18:49;;;;;;;9.18;5.15;;;;;;;11.93;100.00;100926.75;5008948;28;20253;-75
2022/10/23 07:21:29;;;;;;;11.13;5.78;;;;;;;11.97;100.00;100921.94;5010489;28;20409;-75
2022/10/23 07:24:03;;;;;;;10.50;5.28;;;;;;;12.00;100.00;100914.41;5016443;28;20453;-75
2022/10/23 07:26:31;;;;;;;9.30;5.70;;;;;;;12.05;100.00;100908.59;5014668;28;20072;-75
2022/10/23 07:28:57;;;;;;;14.93;5.75;;;;;;;12.09;100.00;100917.41;5008929;28;20469;-75
2022/10/23 07:31:24;;;;;;;8.60;5.22;;;;;;;12.13;100.00;100906.16;5008950;28;20132;-74
2022/10/23 07:34:10;;;;;;;14.95;5.85;;;;;;;12.17;100.00;100909.47;5027151;28;20571;-75
2022/10/23 07:36:35;;;;;;;8.95;5.15;;;;;;;12.21;100.00;100906.41;5028801;28;20485;-75
2022/10/23 07:39:01;;;;;;;10.15;5.68;;;;;;;12.25;100.00;100896.13;5022936;28;20040;-75
2022/10/23 07:41:26;;;;;;;11.18;5.60;;;;;;;12.30;100.00;100903.94;5008882;28;20022;-75
2022/10/23 07:43:51;;;;;;;10.38;5.47;;;;;;;12.34;100.00;100900.00;5008727;28;20458;-75
2022/10/23 07:46:17;;;;;;;12.80;6.68;;;;;;;12.40;100.00;100902.22;5008562;28;20038;-75
2022/10/23 07:48:42;;;;;;;11.48;5.70;;;;;;;12.42;100.00;100892.94;5008663;28;20073;-74
2022/10/23 07:51:13;;;;;;;9.93;5.85;;;;;;;12.46;100.00;100894.44;5010358;28;20103;-75
2022/10/23 07:53:44;;;;;;;10.85;6.43;;;;;;;12.53;100.00;100897.53;5008355;28;20036;-75
2022/10/23 07:56:48;;;;;;;10.13;6.05;;;;;;;12.58;100.00;100889.84;4949750;28;20075;-75
2022/10/23 07:59:17;;;;;;;12.05;5.90;;;;;;;12.62;100.00;100890.47;4933340;29;20518;-75
2022/10/23 08:01:48;;;;;;;10.93;5.82;;;;;;;12.68;100.00;100892.69;4970821;28;20507;-75
2022/10/23 08:04:14;;;;;;;13.90;5.97;;;;;;;12.71;100.00;100893.31;5007957;28;20128;-74
2022/10/23 08:06:48;;;;;;;9.93;5.28;;;;;;;12.78;100.00;100890.97;5008230;28;20320;-75
2022/10/23 08:09:14;;;;;;;9.07;5.68;;;;;;;12.83;100.00;100876.97;5008492;28;20044;-75
2022/10/23 08:11:41;;;;;;;12.10;6.43;;;;;;;12.89;100.00;100885.50;5023097;28;20037;-75
2022/10/23 08:14:08;;;;;;;11.40;5.80;;;;;;;12.94;100.00;100886.00;5009802;28;20385;-75
2022/10/23 08:16:37;;;;;;;14.63;6.00;;;;;;;13.01;100.00;100875.47;5008388;28;20034;-75
2022/10/23 08:19:03;;;;;;;11.63;5.85;;;;;;;13.09;100.00;100886.59;5009149;28;20770;-76
2022/10/23 08:21:29;;;;;;;10.98;6.90;;;;;;;13.15;100.00;100886.13;5007990;28;20029;-75
2022/10/23 08:23:56;;;;;;;9.90;5.97;;;;;;;13.21;100.00;100882.00;5009373;28;20092;-74
2022/10/23 08:26:23;;;;;;;12.48;5.70;;;;;;;13.28;100.00;100875.91;5007809;28;20042;-75
2022/10/23 08:28:49;;;;;;;14.63;6.93;;;;;;;13.34;100.00;100880.03;5007722;28;20034;-75
2022/10/23 08:31:18;;;;;;;9.43;5.88;;;;;;;13.42;100.00;100882.09;5008013;28;20033;-75
2022/10/23 08:34:01;;;;;;;11.65;6.15;;;;;;;13.48;100.00;100887.94;5007591;28;20049;-75
2022/10/23 08:36:27;;;;;;;11.73;6.20;;;;;;;13.53;100.00;100882.06;4991638;28;20041;-75
2022/10/23 08:38:55;;;;;;;10.77;5.57;;;;;;;13.55;100.00;100871.00;5007876;28;20034;-75
2022/10/23 08:41:30;;;;;;;10.40;5.93;;;;;;;13.58;100.00;100877.09;5018798;28;20064;-75
2022/10/23 08:44:23;;;;;;;12.85;5.70;;;;;;;13.59;100.00;100867.00;5008343;28;20032;-74
2022/10/23 08:46:59;;;;;;;9.55;6.03;;;;;;;13.58;100.00;100855.22;5007436;28;20387;-75
2022/10/23 08:49:48;;;;;;;12.52;6.07;;;;;;;13.57;100.00;100864.41;5016828;28;20052;-74
2022/10/23 08:52:36;;;;;;;10.35;6.03;;;;;;;13.60;100.00;100860.53;5027575;28;20037;-75
2022/10/23 08:55:11;;;;;;;9.85;6.30;;;;;;;13.61;100.00;100862.28;5015477;28;20459;-75
2022/10/23 08:57:44;;;;;;;9.07;6.10;;;;;;;13.64;100.00;100856.56;5022199;28;20034;-74
2022/10/23 09:00:14;;;;;;;9.45;5.85;;;;;;;13.71;100.00;100846.84;5009193;28;20453;-74
2022/10/23 09:02:52;;;;;;;9.43;5.80;;;;;;;13.76;100.00;100848.19;4991776;28;20030;-75
2022/10/23 09:05:44;;;;;;;10.98;6.20;;;;;;;13.82;100.00;100845.91;5008726;28;20037;-75
2022/10/23 09:08:36;;;;;;;11.55;5.50;;;;;;;13.87;100.00;100851.84;5009429;28;20045;-75
2022/10/23 09:11:32;;;;;;;9.50;6.40;;;;;;;13.89;100.00;100831.56;5009185;28;20049;-75
2022/10/23 09:13:57;;;;;;;9.18;5.63;;;;;;;13.90;100.00;100822.38;5009443;28;20045;-75
2022/10/23 09:16:34;;;;;;;12.43;6.15;;;;;;;13.93;100.00;100816.63;5009707;28;20041;-75
2022/10/23 09:18:59;;;;;;;9.95;6.07;;;;;;;13.99;100.00;100821.56;5011118;28;20041;-75
2022/10/23 09:21:27;;;;;;;11.38;5.60;;;;;;;14.08;100.00;100824.47;5029339;28;20032;-75
2022/10/23 09:23:53;;;;;;;10.63;5.10;;;;;;;14.13;100.00;100814.91;5024245;28;20034;-75
2022/10/23 09:26:18;;;;;;;8.65;5.47;;;;;;;14.19;100.00;100810.75;5008450;28;20049;-75
2022/10/23 09:28:50;;;;;;;11.10;5.50;;;;;;;14.23;99.84;100807.59;5007206;28;20045;-74
2022/10/23 09:31:17;;;;;;;11.80;5.85;;;;;;;14.27;99.00;100800.00;5008728;28;20133;-74
2022/10/23 09:33:54;;;;;;;11.82;5.90;;;;;;;14.28;99.79;100805.31;5008014;28;20513;-74
2022/10/23 09:36:23;;;;;;;12.75;6.20;;;;;;;14.33;99.78;100801.31;5008708;28;20133;-74
2022/10/23 09:38:51;;;;;;;10.02;5.15;;;;;;;14.37;99.81;100800.03;5010941;28;20545;-74
2022/10/23 09:41:20;;;;;;;10.07;5.35;;;;;;;14.37;98.70;100781.75;5016323;28;20075;-75
2022/10/23 09:43:46;;;;;;;9.65;5.47;;;;;;;14.39;99.11;100771.50;5022769;28;20515;-74
2022/10/23 09:46:12;;;;;;;9.95;5.43;;;;;;;14.45;99.28;100781.91;5031117;28;20026;-75
2022/10/23 09:48:41;;;;;;;9.35;5.30;;;;;;;14.47;98.39;100777.19;5029779;28;20057;-74
2022/10/23 09:51:20;;;;;;;7.60;4.88;;;;;;;14.51;98.21;100773.19;5012205;28;20100;-74
2022/10/23 09:53:49;;;;;;;10.10;5.80;;;;;;;14.57;98.36;100779.97;5012378;28;20104;-74
2022/10/23 09:56:32;;;;;;;13.45;5.05;;;;;;;14.62;98.52;100772.22;5012033;28;20030;-75
2022/10/23 09:59:04;;;;;;;8.88;4.88;;;;;;;14.67;98.47;100766.31;5011863;28;20041;-75
2022/10/23 10:01:34;;;;;;;11.45;5.30;;;;;;;14.69;97.79;100772.53;5012043;28;20487;-75
2022/10/23 10:04:40;;;;;;;11.80;5.38;;;;;;;14.76;98.56;100760.00;5011495;28;20052;-74
2022/10/23 10:07:18;;;;;;;7.72;4.97;;;;;;;14.82;97.76;100742.13;5012132;28;20038;-75
2022/10/23 10:09:44;;;;;;;10.32;6.15;;;;;;;14.87;97.06;100742.56;5021708;28;20503;-74
2022/10/23 10:12:26;;;;;;;7.75;5.40;;;;;;;14.88;96.56;100739.72;5013102;28;20037;-74
2022/10/23 10:15:13;;;;;;;7.32;4.78;;;;;;;14.90;96.26;100742.31;5031770;28;20128;-74
2022/10/23 10:18:13;;;;;;;10.13;4.55;;;;;;;14.94;96.67;100719.97;5032149;28;20049;-75
2022/10/23 10:20:52;;;;;;;7.05;4.88;;;;;;;14.98;96.47;100718.69;5014779;28;20053;-75
2022/10/23 10:23:44;;;;;;;10.02;4.85;;;;;;;15.03;96.59;100718.25;5010598;28;20040;-74
2022/10/23 10:26:26;;;;;;;9.10;4.72;;;;;;;15.05;95.67;100708.84;5012303;28;20129;-75
2022/10/23 10:29:03;;;;;;;;;;;;;;;15.15;97.38;100708.84;5011567;28;20115;-75
2022/10/23 10:32:12;;;;;;;7.78;4.60;;;;;;;15.23;96.72;100717.22;5011564;28;19918;-75
2022/10/23 10:34:49;;;;;;;8.18;4.18;;;;;;;15.27;95.07;100707.72;5012344;28;20046;-75
2022/10/23 10:37:33;;;;;;;7.00;4.25;;;;;;;15.32;94.58;100710.88;5011530;28;20053;-75
2022/10/23 10:40:21;;;;;;;6.80;4.30;;;;;;;15.40;95.32;100712.03;5009833;28;20361;-74
2022/10/23 10:43:14;;;;;;;7.90;4.57;;;;;;;15.50;95.25;100702.78;5016619;28;20050;-74
2022/10/23 10:46:05;;;;;;;9.10;4.55;;;;;;;15.62;94.54;100709.00;5019815;28;20038;-74
2022/10/23 10:48:37;;;;;;;7.95;4.22;;;;;;;15.75;94.35;100708.69;5005730;28;20050;-74
2022/10/23 10:51:41;;;;;;;6.22;4.18;;;;;;;15.84;91.15;100701.44;5018077;28;20516;-75
2022/10/23 10:54:25;;;;;;;11.75;4.80;;;;;;;15.96;93.23;100694.78;5022879;28;20112;-75
2022/10/23 10:56:50;;;;;;;8.45;3.97;;;;;;;16.07;91.57;100689.94;5012083;28;20100;-74
2022/10/23 10:59:24;;;;;;;6.82;3.92;;;;;;;16.22;93.06;100678.47;5010710;28;20485;-74
2022/10/23 11:02:02;;;;;;;7.28;4.53;;;;;;;16.35;91.43;100679.00;5010402;28;20077;-74
2022/10/23 11:04:35;;;;;;;9.82;3.70;;;;;;;16.50;91.40;100677.44;5011096;28;20065;-74
2022/10/23 11:07:07;;;;;;;7.20;3.40;;;;;;;16.59;88.96;100671.03;5014055;28;20117;-74
2022/10/23 11:09:32;;;;;;;7.60;3.45;;;;;;;16.74;90.36;100681.53;5019246;28;20037;-74
2022/10/23 11:11:58;;;;;;;8.52;3.63;;;;;;;16.82;89.01;100666.00;5027073;28;20504;-74
2022/10/23 11:14:31;;;;;;;7.68;3.78;;;;;;;16.92;89.26;100671.41;5010394;28;20037;-74
2022/10/23 11:17:24;;;;;;;7.55;3.80;;;;;;;16.98;89.92;100658.97;5011285;28;20037;-74
2022/10/23 11:20:02;;;;;;;7.57;3.97;;;;;;;17.02;88.90;100649.34;5010945;28;20033;-74
2022/10/23 11:22:35;;;;;;;8.52;3.90;;;;;;;17.11;87.59;100647.53;5013534;28;20117;-74
2022/10/23 11:25:13;;;;;;;7.70;3.72;;;;;;;17.20;88.21;100654.84;5010203;28;20095;-74
2022/10/23 11:27:41;;;;;;;6.28;3.63;;;;;;;17.31;86.59;100652.72;5015790;28;20037;-74
2022/10/23 11:30:30;;;;;;;15.70;3.78;;;;;;;17.37;87.67;100636.59;5030551;28;20493;-74
2022/10/23 11:33:07;;;;;;;10.55;3.63;;;;;;;17.42;86.12;100642.47;5030834;28;20044;-74
2022/10/23 11:35:59;;;;;;;12.63;4.25;;;;;;;17.49;86.81;100635.31;5021882;28;20518;-74
2022/10/23 11:38:37;;;;;;;7.35;3.67;;;;;;;17.56;84.43;100626.25;5025922;28;20029;-74